Sks Mersey — LAXA5 — position and weather

sailwx.info

Track history (hours):
 
Tides and Currents Weather Stations Pressure Air Temp Water Temp Dewpoint Dewpoint Depression Visibility Wind Speed Wind Dir Waves Ship Positions

Sks Mersey

Last reported at 2018-Apr-06 10:34 UTC. Time now 2018-Apr-20 05:07 UTC.
Position N 28°05' W 016°21'.
Warning: this ship's position is 13 days out of date.

Length 250 m; draft 12.9 m.

Type: Tanker. MMSI: 258786000.

Date/timePositionNaut miles runAvg speedWind from/ knotsBaromVisibWave heightAir tempDewpointWater temp
2018-Apr-06 10:34N 28°05' W 016°21'312.8
2018-Apr-06 10:20N 28°08' W 016°19'412.8
2018-Apr-06 10:00N 28°11' W 016°17'612.8
2018-Apr-06 09:30N 28°17' W 016°14'612.7
2018-Apr-06 09:00N 28°22' W 016°10'612.0
2018-Apr-06 08:30N 28°28' W 016°07'1 2.9
2018-Apr-06 08:00N 28°29' W 016°07'3 6.7
2018-Apr-06 07:30N 28°31' W 016°04'712.4
2018-Apr-06 06:59N 28°35' W 015°58'1112.4
2018-Apr-06 06:04N 28°42' W 015°48'112.3
2018-Apr-06 06:00N 28°42' W 015°47'712.5
2018-Apr-06 05:25N 28°48' W 015°42'612.5
2018-Apr-06 04:56N 28°52' W 015°37'1212.1
2018-Apr-06 03:55N 28°60' W 015°26'512.1
2018-Apr-06 03:29N 29°03' W 015°21'612.0
2018-Apr-06 02:56N 29°07' W 015°15'612.2
2018-Apr-06 02:29N 29°10' W 015°10'1912.7
2018-Apr-06 00:57N 29°23' W 014°53'613.0
2018-Apr-06 00:30N 29°27' W 014°48'713.0
2018-Apr-06 00:00N 29°31' W 014°42'713.0
2018-Apr-05 23:26N 29°36' W 014°36'1712.8
2018-Apr-05 22:08N 29°47' W 014°22'212.7
2018-Apr-05 21:57N 29°48' W 014°20'612.8
2018-Apr-05 21:30N 29°52' W 014°15'812.6
2018-Apr-05 20:54N 29°57' W 014°08'612.6
2018-Apr-05 20:25N 30°01' W 014°03'55512.3
2018-Apr-03 23:26N 35°57' W 005°35'511.0
2018-Apr-03 23:00N 35°59' W 005°29'5 9.2
2018-Apr-03 22:30N 36°01' W 005°24'510.1
2018-Apr-03 22:00N 36°03' W 005°18'  
2018-Apr-01 14:12N 35°49' W 000°15'0 0.1
2018-Apr-01 14:00N 35°49' W 000°15'1 2.0
2018-Apr-01 13:30N 35°49' W 000°14'2 3.4
2018-Apr-01 12:58N 35°51' W 000°14'  
2018-Mar-29 13:44N 36°06' W 000°11'241 6.5
2018-Mar-28 00:53N 36°02' W 005°09'3 7.2
2018-Mar-28 00:30N 36°02' W 005°12'3 6.7
2018-Mar-28 00:00N 36°03' W 005°16'4 7.9
2018-Mar-27 23:30N 36°04' W 005°21'2 4.4
2018-Mar-27 23:00N 36°07' W 005°22'0 0.2
2018-Mar-27 22:30N 36°07' W 005°21'0 0.0
2018-Mar-27 22:00N 36°07' W 005°21'0 0.0
2018-Mar-27 21:30N 36°07' W 005°21'0 0.1
2018-Mar-27 20:57N 36°07' W 005°21'0 0.0
2018-Mar-27 20:30N 36°07' W 005°21'0 0.0
2018-Mar-27 20:00N 36°07' W 005°21'0 0.0
2018-Mar-27 19:30N 36°07' W 005°22'0 0.1
2018-Mar-27 19:00N 36°07' W 005°21'0 0.0
2018-Mar-27 18:30N 36°07' W 005°21'0 0.0
2018-Mar-27 18:00N 36°07' W 005°21'0 0.0
2018-Mar-27 17:30N 36°07' W 005°21'0 0.2
2018-Mar-27 16:57N 36°07' W 005°21'0 0.0
2018-Mar-27 16:30N 36°07' W 005°21'0 0.0
2018-Mar-27 16:00N 36°07' W 005°21'0 0.0
2018-Mar-27 15:30N 36°07' W 005°21'0 0.0
2018-Mar-27 15:00N 36°07' W 005°21'0 0.0
2018-Mar-27 14:30N 36°07' W 005°21'0 0.0
2018-Mar-27 14:00N 36°07' W 005°21'0 0.0
2018-Mar-27 13:30N 36°07' W 005°21'0 0.1
2018-Mar-27 13:00N 36°07' W 005°21'1 2.2
2018-Mar-27 12:30N 36°06' W 005°21'0 0.7
2018-Mar-27 12:00N 36°06' W 005°20'2 3.0
2018-Mar-27 11:30N 36°06' W 005°18'  
Track history (hours):
 
Tides and Currents Weather Stations Pressure Air Temp Water Temp Dewpoint Dewpoint Depression Visibility Wind Speed Wind Dir Waves Ship Positions

Sks Mersey

Last reported at 2018-Apr-06 10:34 UTC. Time now 2018-Apr-20 05:07 UTC.
Position N 28°05' W 016°21'.
Warning: this ship's position is 13 days out of date.

Length 250 m; draft 12.9 m.

Type: Tanker. MMSI: 258786000.

Date/timePositionNaut miles runAvg speedWind from/ knotsBaromVisibWave heightAir tempDewpointWater temp
2018-Apr-06 10:34N 28°05' W 016°21'312.8
2018-Apr-06 10:20N 28°08' W 016°19'412.8
2018-Apr-06 10:00N 28°11' W 016°17'612.8
2018-Apr-06 09:30N 28°17' W 016°14'612.7
2018-Apr-06 09:00N 28°22' W 016°10'612.0
2018-Apr-06 08:30N 28°28' W 016°07'1 2.9
2018-Apr-06 08:00N 28°29' W 016°07'3 6.7
2018-Apr-06 07:30N 28°31' W 016°04'712.4
2018-Apr-06 06:59N 28°35' W 015°58'1112.4
2018-Apr-06 06:04N 28°42' W 015°48'112.3
2018-Apr-06 06:00N 28°42' W 015°47'712.5
2018-Apr-06 05:25N 28°48' W 015°42'612.5
2018-Apr-06 04:56N 28°52' W 015°37'1212.1
2018-Apr-06 03:55N 28°60' W 015°26'512.1
2018-Apr-06 03:29N 29°03' W 015°21'612.0
2018-Apr-06 02:56N 29°07' W 015°15'612.2
2018-Apr-06 02:29N 29°10' W 015°10'1912.7
2018-Apr-06 00:57N 29°23' W 014°53'613.0
2018-Apr-06 00:30N 29°27' W 014°48'713.0
2018-Apr-06 00:00N 29°31' W 014°42'713.0
2018-Apr-05 23:26N 29°36' W 014°36'1712.8
2018-Apr-05 22:08N 29°47' W 014°22'212.7
2018-Apr-05 21:57N 29°48' W 014°20'612.8
2018-Apr-05 21:30N 29°52' W 014°15'812.6
2018-Apr-05 20:54N 29°57' W 014°08'612.6
2018-Apr-05 20:25N 30°01' W 014°03'55512.3
2018-Apr-03 23:26N 35°57' W 005°35'511.0
2018-Apr-03 23:00N 35°59' W 005°29'5 9.2
2018-Apr-03 22:30N 36°01' W 005°24'510.1
2018-Apr-03 22:00N 36°03' W 005°18'  
2018-Apr-01 14:12N 35°49' W 000°15'0 0.1
2018-Apr-01 14:00N 35°49' W 000°15'1 2.0
2018-Apr-01 13:30N 35°49' W 000°14'2 3.4
2018-Apr-01 12:58N 35°51' W 000°14'  
2018-Mar-29 13:44N 36°06' W 000°11'241 6.5
2018-Mar-28 00:53N 36°02' W 005°09'3 7.2
2018-Mar-28 00:30N 36°02' W 005°12'3 6.7
2018-Mar-28 00:00N 36°03' W 005°16'4 7.9
2018-Mar-27 23:30N 36°04' W 005°21'2 4.4
2018-Mar-27 23:00N 36°07' W 005°22'0 0.2
2018-Mar-27 22:30N 36°07' W 005°21'0 0.0
2018-Mar-27 22:00N 36°07' W 005°21'0 0.0
2018-Mar-27 21:30N 36°07' W 005°21'0 0.1
2018-Mar-27 20:57N 36°07' W 005°21'0 0.0
2018-Mar-27 20:30N 36°07' W 005°21'0 0.0
2018-Mar-27 20:00N 36°07' W 005°21'0 0.0
2018-Mar-27 19:30N 36°07' W 005°22'0 0.1
2018-Mar-27 19:00N 36°07' W 005°21'0 0.0
2018-Mar-27 18:30N 36°07' W 005°21'0 0.0
2018-Mar-27 18:00N 36°07' W 005°21'0 0.0
2018-Mar-27 17:30N 36°07' W 005°21'0 0.2
2018-Mar-27 16:57N 36°07' W 005°21'0 0.0
2018-Mar-27 16:30N 36°07' W 005°21'0 0.0
2018-Mar-27 16:00N 36°07' W 005°21'0 0.0
2018-Mar-27 15:30N 36°07' W 005°21'0 0.0
2018-Mar-27 15:00N 36°07' W 005°21'0 0.0
2018-Mar-27 14:30N 36°07' W 005°21'0 0.0
2018-Mar-27 14:00N 36°07' W 005°21'0 0.0
2018-Mar-27 13:30N 36°07' W 005°21'0 0.1
2018-Mar-27 13:00N 36°07' W 005°21'1 2.2
2018-Mar-27 12:30N 36°06' W 005°21'0 0.7
2018-Mar-27 12:00N 36°06' W 005°20'2 3.0
2018-Mar-27 11:30N 36°06' W 005°18'  

Dump ship's entire track history